Terminal Aerodrome Forecast
Issued by NWS

Home | Current Version | Previous Version | Text Only | Print | Product List | Glossary On
Versions: 1 2 3 4 5 6 7 8 9 10 11 12 13 14 15 16 17 18 19 20 21
000
FTUS43 KDVN 261100
TAFBRL
TAF
KBRL 261129Z 2612/2712 20012G17KT P6SM BKN250 WS018/21040KT
     FM261800 22009KT P6SM BKN250
     FM270000 17006KT P6SM BKN035 OVC150
     FM270400 18006KT 6SM BR OVC035
     FM270900 21004KT 5SM BR BKN020=

USA.gov is the U.S. government's official web portal to all federal, state and local government web resources and services.